createdAt,value
2023-08-26T00:02:35.850Z,20.82
2023-08-26T00:05:42.236Z,22.70
2023-08-26T00:08:48.045Z,22.67
2023-08-26T00:11:53.793Z,24.07
2023-08-26T00:14:59.641Z,19.65
2023-08-26T00:18:05.216Z,19.60
2023-08-26T00:21:12.783Z,15.95
2023-08-26T00:24:19.456Z,21.42
2023-08-26T00:27:26.439Z,15.83
2023-08-26T00:30:32.788Z,14.60
2023-08-26T00:33:38.975Z,18.37
2023-08-26T00:36:46.123Z,18.45
2023-08-26T00:39:50.676Z,17.42
2023-08-26T00:42:57.160Z,25.70
2023-08-26T00:46:04.313Z,21.60
2023-08-26T00:49:10.414Z,20.37
2023-08-26T00:52:17.798Z,20.70
2023-08-26T00:55:24.692Z,15.38
2023-08-26T00:58:30.832Z,19.77
2023-08-26T01:01:36.192Z,14.03
2023-08-26T01:04:42.034Z,14.15
2023-08-26T01:07:47.804Z,16.40
2023-08-26T01:11:39.639Z,13.28
2023-08-26T01:14:52.699Z,13.90
2023-08-26T01:17:58.297Z,11.88
2023-08-26T01:21:04.990Z,12.40
2023-08-26T01:24:12.174Z,13.90
2023-08-26T01:27:19.261Z,15.20
2023-08-26T01:30:26.977Z,13.28
2023-08-26T01:33:37.673Z,11.90
2023-08-26T01:36:42.659Z,10.98
2023-08-26T01:39:48.836Z,13.05
2023-08-26T01:42:57.000Z,13.65
2023-08-26T01:46:02.619Z,11.18
2023-08-26T01:49:07.824Z,10.80
2023-08-26T01:52:12.454Z,13.68
2023-08-26T01:55:17.815Z,12.80
2023-08-26T01:58:24.887Z,11.22
2023-08-26T02:01:30.151Z,13.22
2023-08-26T02:04:36.736Z,12.90
2023-08-26T02:07:42.556Z,12.15
2023-08-26T02:10:49.174Z,16.93
2023-08-26T02:13:56.630Z,11.35
2023-08-26T02:17:03.305Z,10.55
2023-08-26T02:20:10.684Z,12.45
2023-08-26T02:23:17.582Z,14.47
2023-08-26T02:26:23.132Z,14.80
2023-08-26T02:29:29.093Z,11.70
2023-08-26T02:32:34.135Z,15.23
2023-08-26T02:35:40.279Z,10.78
2023-08-26T02:38:46.558Z,13.78
2023-08-26T02:41:52.615Z,14.90
2023-08-26T02:44:59.907Z,14.07
2023-08-26T02:48:05.757Z,11.30
2023-08-26T02:51:15.612Z,13.35
2023-08-26T02:54:20.671Z,13.58
2023-08-26T02:57:27.858Z,14.38
2023-08-26T03:00:34.920Z,15.95
2023-08-26T03:03:41.078Z,13.03
2023-08-26T03:06:47.969Z,13.60
2023-08-26T03:09:54.442Z,13.55
2023-08-26T03:13:00.613Z,16.55
2023-08-26T03:16:07.436Z,13.18
2023-08-26T03:19:14.092Z,14.33
2023-08-26T03:22:19.907Z,17.45
2023-08-26T03:25:19.512Z,13.30
2023-08-26T03:28:26.596Z,20.68
2023-08-26T03:31:34.060Z,15.53
2023-08-26T03:34:40.800Z,15.13
2023-08-26T03:37:48.011Z,19.10
2023-08-26T03:40:56.475Z,17.50
2023-08-26T03:44:02.263Z,22.60
2023-08-26T03:47:07.454Z,19.15
2023-08-26T03:50:14.590Z,19.25
2023-08-26T03:53:20.499Z,18.25
2023-08-26T03:56:26.403Z,20.88
2023-08-26T03:59:32.401Z,22.30
2023-08-26T04:02:38.810Z,18.42
2023-08-26T04:05:44.530Z,15.50
2023-08-26T04:08:52.165Z,20.72
2023-08-26T04:11:58.219Z,20.70
2023-08-26T04:15:03.913Z,27.27
2023-08-26T04:18:11.315Z,41.40
2023-08-26T04:21:17.462Z,37.95
2023-08-26T04:24:23.327Z,28.87
2023-08-26T04:27:27.911Z,29.25
2023-08-26T04:30:33.593Z,30.12
2023-08-26T04:33:40.872Z,35.92
2023-08-26T04:36:46.683Z,37.38
2023-08-26T04:39:52.826Z,29.57
2023-08-26T04:42:59.849Z,24.60
2023-08-26T04:46:07.138Z,16.23
2023-08-26T04:49:14.221Z,13.38
2023-08-26T04:52:19.762Z,15.03
2023-08-26T04:55:26.128Z,11.57
2023-08-26T04:58:31.600Z,25.40
2023-08-26T05:01:39.176Z,16.27
2023-08-26T05:04:45.837Z,13.98
2023-08-26T05:07:51.930Z,13.75
2023-08-26T05:10:58.322Z,14.45
2023-08-26T05:14:04.343Z,14.33
2023-08-26T05:17:09.807Z,14.05
2023-08-26T05:20:16.788Z,15.70
2023-08-26T05:23:21.640Z,16.97
2023-08-26T05:26:26.676Z,12.10
2023-08-26T05:29:33.444Z,12.82
2023-08-26T05:32:41.303Z,11.68
2023-08-26T05:35:47.564Z,11.03
2023-08-26T05:38:53.548Z,14.03
2023-08-26T05:41:58.726Z,12.30
2023-08-26T05:45:05.806Z,11.53
2023-08-26T05:48:11.479Z,13.20
2023-08-26T05:51:10.750Z,14.43
2023-08-26T05:54:18.634Z,12.03
2023-08-26T05:57:24.179Z,12.98
2023-08-26T06:00:35.450Z,15.40
2023-08-26T06:03:40.852Z,12.85
2023-08-26T06:06:47.451Z,14.60
2023-08-26T06:09:52.537Z,16.67
2023-08-26T06:12:58.746Z,13.05
2023-08-26T06:16:11.739Z,11.60
2023-08-26T06:19:18.513Z,14.10
2023-08-26T06:22:23.646Z,12.90
2023-08-26T06:25:29.789Z,12.85
2023-08-26T06:28:36.160Z,14.23
2023-08-26T06:31:41.853Z,15.93
2023-08-26T06:34:47.974Z,14.60
2023-08-26T06:37:54.069Z,13.72
2023-08-26T06:40:59.392Z,11.15
2023-08-26T06:44:05.965Z,12.65
2023-08-26T06:47:15.002Z,13.00
2023-08-26T06:50:23.958Z,18.10
2023-08-26T06:53:31.756Z,10.75
2023-08-26T06:56:38.548Z,12.75
2023-08-26T06:59:46.324Z,11.38
2023-08-26T07:02:51.257Z,12.00
2023-08-26T07:06:03.180Z,9.45
2023-08-26T07:09:10.858Z,11.88
2023-08-26T07:12:15.627Z,13.30
2023-08-26T07:15:21.986Z,10.03
2023-08-26T07:18:27.518Z,10.85
2023-08-26T07:21:34.364Z,11.70
2023-08-26T07:24:39.829Z,9.90
2023-08-26T07:27:45.684Z,11.50
2023-08-26T07:30:52.756Z,11.35
2023-08-26T07:34:00.071Z,9.53
2023-08-26T07:37:08.268Z,9.00
2023-08-26T07:40:17.810Z,9.68
2023-08-26T07:43:22.745Z,9.63
2023-08-26T07:49:37.607Z,7.92
2023-08-26T07:52:42.647Z,8.60
2023-08-26T07:55:50.483Z,7.97
2023-08-26T07:58:57.237Z,9.38
2023-08-26T08:02:04.164Z,7.37
2023-08-26T08:05:11.244Z,5.60
2023-08-26T08:08:16.383Z,7.85
2023-08-26T08:11:21.343Z,9.95
2023-08-26T08:14:27.083Z,12.53
2023-08-26T08:17:33.443Z,6.58
2023-08-26T08:20:39.654Z,9.98
2023-08-26T08:23:46.147Z,7.05
2023-08-26T08:26:51.684Z,9.55
2023-08-26T08:29:59.029Z,6.35
2023-08-26T08:33:04.823Z,7.40
2023-08-26T08:36:11.808Z,10.78
2023-08-26T08:39:17.940Z,7.90
2023-08-26T08:42:25.915Z,5.92
2023-08-26T08:45:31.547Z,7.55
2023-08-26T08:48:39.308Z,10.68
2023-08-26T08:51:44.665Z,8.80
2023-08-26T08:54:50.043Z,7.92
2023-08-26T08:57:58.767Z,8.23
2023-08-26T09:01:06.885Z,7.47
2023-08-26T09:04:11.956Z,6.20
2023-08-26T09:07:22.504Z,8.18
2023-08-26T09:10:26.724Z,8.00
2023-08-26T09:13:31.355Z,8.40
2023-08-26T09:16:45.252Z,6.00
2023-08-26T09:19:52.971Z,11.12
2023-08-26T09:22:59.036Z,6.33
2023-08-26T09:26:10.868Z,6.95
2023-08-26T09:29:17.343Z,10.23
2023-08-26T09:32:24.894Z,7.00
2023-08-26T09:38:42.472Z,5.25
2023-08-26T09:41:48.213Z,9.00
2023-08-26T09:44:56.421Z,7.55
2023-08-26T09:48:05.705Z,7.12
2023-08-26T09:51:12.432Z,7.97
2023-08-26T09:54:18.648Z,6.05
2023-08-26T09:57:25.890Z,5.20
2023-08-26T10:00:32.871Z,10.15
2023-08-26T10:03:39.983Z,11.15
2023-08-26T10:06:46.443Z,27.05
2023-08-26T10:10:07.590Z,10.70
2023-08-26T10:13:18.882Z,8.10
2023-08-26T10:16:33.920Z,5.25
2023-08-26T10:19:34.833Z,9.70
2023-08-26T10:22:41.436Z,5.05
2023-08-26T10:25:47.632Z,6.42
2023-08-26T10:28:55.350Z,17.67
2023-08-26T10:32:00.631Z,8.28
2023-08-26T10:35:14.572Z,23.80
2023-08-26T10:38:28.206Z,8.23
2023-08-26T10:41:33.910Z,11.75
2023-08-26T10:44:53.515Z,8.05
2023-08-26T10:48:00.477Z,27.32
2023-08-26T10:51:16.568Z,10.32
2023-08-26T10:54:24.804Z,11.20
2023-08-26T10:57:30.678Z,18.02
2023-08-26T11:00:38.173Z,10.90
2023-08-26T11:03:45.383Z,7.28
2023-08-26T11:06:53.972Z,5.22
2023-08-26T11:10:01.458Z,6.50
2023-08-26T11:13:06.789Z,5.28
2023-08-26T11:16:15.483Z,6.72
2023-08-26T11:19:22.844Z,6.42
2023-08-26T11:22:28.899Z,8.00
2023-08-26T11:25:34.449Z,6.42
2023-08-26T11:28:41.416Z,6.72
2023-08-26T11:31:49.104Z,6.90
2023-08-26T11:34:55.926Z,4.67
2023-08-26T11:38:05.172Z,4.87
2023-08-26T11:41:12.817Z,5.78
2023-08-26T11:44:23.252Z,5.30
2023-08-26T11:47:30.324Z,7.22
2023-08-26T11:50:35.318Z,7.60
2023-08-26T11:53:41.108Z,6.72
2023-08-26T11:56:46.211Z,6.65
2023-08-26T11:59:54.686Z,6.22
2023-08-26T12:03:07.035Z,7.78
2023-08-26T12:06:13.892Z,7.30
2023-08-26T12:09:20.168Z,5.33
2023-08-26T12:12:26.616Z,5.75
2023-08-26T12:15:33.559Z,7.00
2023-08-26T12:18:39.029Z,5.28
2023-08-26T12:21:47.574Z,9.23
2023-08-26T12:24:54.838Z,6.62
2023-08-26T12:28:01.789Z,4.30
2023-08-26T12:31:07.039Z,4.83
2023-08-26T12:34:13.214Z,4.12
2023-08-26T12:37:21.713Z,8.80
2023-08-26T12:40:30.346Z,5.37
2023-08-26T12:43:37.749Z,10.18
2023-08-26T12:46:44.111Z,6.00
2023-08-26T12:49:50.818Z,7.05
2023-08-26T12:52:56.307Z,7.42
2023-08-26T12:56:02.343Z,7.08
2023-08-26T12:59:07.631Z,6.72
2023-08-26T13:02:14.348Z,4.37
2023-08-26T13:05:24.091Z,7.95
2023-08-26T13:08:29.682Z,7.42
2023-08-26T13:11:34.829Z,6.12
2023-08-26T13:14:40.811Z,5.92
2023-08-26T13:17:46.533Z,7.60
2023-08-26T13:20:56.517Z,6.30
2023-08-26T13:24:01.646Z,6.95
2023-08-26T13:27:08.368Z,5.03
2023-08-26T13:30:14.512Z,7.05
2023-08-26T13:33:23.020Z,8.18
2023-08-26T13:36:36.232Z,6.25
2023-08-26T13:39:36.836Z,6.65
2023-08-26T13:42:42.403Z,7.53
2023-08-26T13:45:49.196Z,7.00
2023-08-26T13:48:56.298Z,6.97
2023-08-26T13:52:02.278Z,8.45
2023-08-26T13:55:08.726Z,15.32
2023-08-26T13:58:14.329Z,7.00
2023-08-26T14:01:19.721Z,6.35
2023-08-26T14:04:27.028Z,8.65
2023-08-26T14:07:35.043Z,11.93
2023-08-26T14:10:41.519Z,8.15
2023-08-26T14:13:47.663Z,13.18
2023-08-26T14:16:53.210Z,8.85
2023-08-26T14:19:59.764Z,7.85
2023-08-26T14:23:07.164Z,7.35
2023-08-26T14:26:13.322Z,5.22
2023-08-26T14:29:19.625Z,5.08
2023-08-26T14:32:26.376Z,9.30
2023-08-26T14:35:31.920Z,6.33
2023-08-26T14:38:37.202Z,5.12
2023-08-26T14:41:44.336Z,8.63
2023-08-26T14:44:49.754Z,7.50
2023-08-26T14:47:56.963Z,6.75
2023-08-26T14:51:09.445Z,6.92
2023-08-26T14:54:13.934Z,5.72
2023-08-26T14:57:20.716Z,5.12
2023-08-26T15:00:26.630Z,5.95
2023-08-26T15:03:32.466Z,8.63
2023-08-26T15:06:38.062Z,7.20
2023-08-26T15:09:44.859Z,12.45
2023-08-26T15:12:51.543Z,8.33
2023-08-26T15:16:02.159Z,6.53
2023-08-26T15:19:08.804Z,6.70
2023-08-26T15:22:16.762Z,6.50
2023-08-26T15:25:22.839Z,9.95
2023-08-26T15:28:28.501Z,10.82
2023-08-26T15:31:33.578Z,9.58
2023-08-26T15:34:38.681Z,7.25
2023-08-26T15:37:45.556Z,7.05
2023-08-26T15:40:52.753Z,10.08
2023-08-26T15:43:58.796Z,19.52
2023-08-26T15:47:05.287Z,12.00
2023-08-26T15:50:12.301Z,10.28
2023-08-26T15:53:19.019Z,5.70
2023-08-26T15:56:24.205Z,8.73
2023-08-26T15:59:29.540Z,8.33
2023-08-26T16:02:35.265Z,8.60
2023-08-26T16:05:42.500Z,8.18
2023-08-26T16:08:48.726Z,9.23
2023-08-26T16:11:53.335Z,9.35
2023-08-26T16:15:00.379Z,8.50
2023-08-26T16:18:06.707Z,8.10
2023-08-26T16:21:12.789Z,13.15
2023-08-26T16:24:20.785Z,8.75
2023-08-26T16:27:27.650Z,10.10
2023-08-26T16:30:32.801Z,13.25
2023-08-26T16:33:39.065Z,15.70
2023-08-26T16:36:44.889Z,13.40
2023-08-26T16:39:51.482Z,16.45
2023-08-26T16:42:57.898Z,15.93
2023-08-26T16:46:06.594Z,11.48
2023-08-26T16:49:12.855Z,8.15
2023-08-26T16:52:20.927Z,12.00
2023-08-26T16:55:27.482Z,11.10
2023-08-26T16:58:33.329Z,7.70
2023-08-26T17:01:38.717Z,12.40
2023-08-26T17:04:45.028Z,11.68
2023-08-26T17:07:50.405Z,9.98
2023-08-26T17:10:56.115Z,9.05
2023-08-26T17:14:01.472Z,12.37
2023-08-26T17:17:08.886Z,11.95
2023-08-26T17:20:15.288Z,13.58
2023-08-26T17:23:20.684Z,11.33
2023-08-26T17:26:26.524Z,9.45
2023-08-26T17:29:32.341Z,12.25
2023-08-26T17:32:39.396Z,13.35
2023-08-26T17:35:46.274Z,9.00
2023-08-26T17:38:53.666Z,8.45
2023-08-26T17:42:00.617Z,15.72
2023-08-26T17:45:05.767Z,9.15
2023-08-26T17:48:11.714Z,10.13
2023-08-26T17:51:18.268Z,10.25
2023-08-26T17:54:23.257Z,15.20
2023-08-26T17:57:32.093Z,49.13
2023-08-26T18:00:37.804Z,38.92
2023-08-26T18:03:43.568Z,62.95
2023-08-26T18:06:50.090Z,58.65
2023-08-26T18:09:56.304Z,68.30
2023-08-26T18:13:04.893Z,49.27
2023-08-26T18:16:10.471Z,36.73
2023-08-26T18:19:16.620Z,35.60
2023-08-26T18:22:22.676Z,26.45
2023-08-26T18:25:30.969Z,28.80
2023-08-26T18:28:37.362Z,24.32
2023-08-26T18:31:42.983Z,38.73
2023-08-26T18:34:52.446Z,39.13
2023-08-26T18:38:00.184Z,35.20
2023-08-26T18:41:13.480Z,26.85
2023-08-26T18:44:20.837Z,23.30
2023-08-26T18:47:27.322Z,27.67
2023-08-26T18:50:33.623Z,38.73
2023-08-26T18:53:39.457Z,31.85
2023-08-26T18:56:45.527Z,17.12
2023-08-26T18:59:52.108Z,15.30
2023-08-26T19:02:59.013Z,16.40
2023-08-26T19:06:05.874Z,14.47
2023-08-26T19:09:11.659Z,14.35
2023-08-26T19:12:18.908Z,13.90
2023-08-26T19:15:25.295Z,14.78
2023-08-26T19:18:33.091Z,11.95
2023-08-26T19:21:40.158Z,10.75
2023-08-26T19:24:47.969Z,14.33
2023-08-26T19:27:55.098Z,12.35
2023-08-26T19:31:01.866Z,11.22
2023-08-26T19:34:06.945Z,12.47
2023-08-26T19:37:11.556Z,10.43
2023-08-26T19:40:20.197Z,9.33
2023-08-26T19:43:26.911Z,11.57
2023-08-26T19:46:32.917Z,9.03
2023-08-26T19:49:41.465Z,10.93
2023-08-26T19:52:48.296Z,11.08
2023-08-26T19:55:54.633Z,10.00
2023-08-26T19:58:59.926Z,12.23
2023-08-26T20:02:06.254Z,9.45
2023-08-26T20:05:13.215Z,10.98
2023-08-26T20:08:21.014Z,11.60
2023-08-26T20:11:26.850Z,11.20
2023-08-26T20:14:33.246Z,8.45
2023-08-26T20:17:40.958Z,7.97
2023-08-26T20:20:48.107Z,12.35
2023-08-26T20:23:53.828Z,12.25
2023-08-26T20:26:59.632Z,13.13
2023-08-26T20:30:05.133Z,10.70
2023-08-26T20:33:12.031Z,12.73
2023-08-26T20:36:18.276Z,13.50
2023-08-26T20:39:24.390Z,12.00
2023-08-26T20:42:31.819Z,12.03
2023-08-26T20:45:37.765Z,13.65
2023-08-26T20:48:44.046Z,14.45
2023-08-26T20:51:50.198Z,11.70
2023-08-26T20:54:55.117Z,12.15
2023-08-26T20:58:01.727Z,10.28
2023-08-26T21:01:11.098Z,12.55
2023-08-26T21:04:16.947Z,14.65
2023-08-26T21:07:24.264Z,13.62
2023-08-26T21:10:32.484Z,10.95
2023-08-26T21:13:37.996Z,18.90
2023-08-26T21:16:45.447Z,10.23
2023-08-26T21:19:51.539Z,12.58
2023-08-26T21:22:57.232Z,9.75
2023-08-26T21:26:07.520Z,13.43
2023-08-26T21:29:13.739Z,12.75
2023-08-26T21:32:19.002Z,15.45
2023-08-26T21:35:25.174Z,12.55
2023-08-26T21:38:30.232Z,12.15
2023-08-26T21:41:36.184Z,13.03
2023-08-26T21:44:41.827Z,12.55
2023-08-26T21:47:48.140Z,15.25
2023-08-26T21:51:01.222Z,13.18
2023-08-26T21:54:08.525Z,13.38
2023-08-26T21:57:14.872Z,12.25
2023-08-26T22:00:20.908Z,14.85
2023-08-26T22:03:26.698Z,13.85
2023-08-26T22:06:33.506Z,14.00
2023-08-26T22:09:39.437Z,14.90
2023-08-26T22:12:45.217Z,13.15
2023-08-26T22:15:50.583Z,10.98
2023-08-26T22:18:56.899Z,12.73
2023-08-26T22:22:04.138Z,14.63
2023-08-26T22:25:10.138Z,17.12
2023-08-26T22:28:15.795Z,14.33
2023-08-26T22:31:21.645Z,13.78
2023-08-26T22:34:26.931Z,13.08
2023-08-26T22:37:34.824Z,13.50
2023-08-26T22:40:39.992Z,13.78
2023-08-26T22:43:46.504Z,13.68
2023-08-26T22:46:53.807Z,14.65
2023-08-26T22:49:59.490Z,16.35
2023-08-26T22:53:05.420Z,14.50
2023-08-26T22:56:10.671Z,12.50
2023-08-26T22:59:17.462Z,14.25
2023-08-26T23:02:22.768Z,27.25
2023-08-26T23:05:29.995Z,18.42
2023-08-26T23:08:36.120Z,16.35
2023-08-26T23:11:42.402Z,12.85
2023-08-26T23:14:50.310Z,13.22
2023-08-26T23:17:56.892Z,17.90
2023-08-26T23:21:03.199Z,26.02
2023-08-26T23:24:09.816Z,14.73
2023-08-26T23:27:16.604Z,12.78
2023-08-26T23:30:24.735Z,13.45
2023-08-26T23:33:30.521Z,12.90
2023-08-26T23:36:35.754Z,17.00
2023-08-26T23:39:43.204Z,13.95
2023-08-26T23:42:49.664Z,19.75
2023-08-26T23:45:55.404Z,13.65
2023-08-26T23:49:01.072Z,14.93
2023-08-26T23:52:06.644Z,18.90
2023-08-26T23:55:13.840Z,13.70
2023-08-26T23:58:20.426Z,17.45
